Time;durP1;ratioP1;P1;durP2;ratioP2;P2;SDS_P1;SDS_P2;PMS_P1;PMS_P2;Temp;Humidity;BMP_temperature;BMP_pressure;BME280_temperature;BME280_humidity;BME280_pressure;Samples;Min_cycle;Max_cycle;Signal;HPM_P1;HPM_P2
2022/06/17 00:01:04;;;;;;;11.13;3.20;;;;;;;;;;5057856;28;20056;-72
2022/06/17 00:03:32;;;;;;;9.85;3.60;;;;;;;;;;5059081;28;20457;-71
2022/06/17 00:06:00;;;;;;;12.55;3.70;;;;;;;;;;5053579;28;20052;-71
2022/06/17 00:08:40;;;;;;;14.43;3.35;;;;;;;;;;5056956;28;20052;-71
2022/06/17 00:11:12;;;;;;;10.52;2.97;;;;;;;;;;5053525;28;20068;-70
2022/06/17 00:13:38;;;;;;;7.32;2.90;;;;;;;;;;5056529;28;20045;-71
2022/06/17 00:16:10;;;;;;;11.10;3.35;;;;;;;;;;5055547;28;20101;-71
2022/06/17 00:18:35;;;;;;;9.77;3.30;;;;;;;;;;5057492;28;20051;-70
2022/06/17 00:21:03;;;;;;;18.98;3.40;;;;;;;;;;5057825;28;20044;-71
2022/06/17 00:23:29;;;;;;;13.57;3.15;;;;;;;;;;5057469;28;20139;-72
2022/06/17 00:25:55;;;;;;;10.50;3.00;;;;;;;;;;5053341;28;20151;-71
2022/06/17 00:28:23;;;;;;;13.10;3.35;;;;;;;;;;5058580;28;20057;-71
2022/06/17 00:30:50;;;;;;;16.45;2.95;;;;;;;;;;5054661;28;20147;-72
2022/06/17 00:33:18;;;;;;;12.60;3.22;;;;;;;;;;5058911;28;20045;-71
2022/06/17 00:35:53;;;;;;;14.85;3.28;;;;;;;;;;5053757;28;20049;-71
2022/06/17 00:38:28;;;;;;;10.45;3.00;;;;;;;;;;5060640;28;20607;-70
2022/06/17 00:40:56;;;;;;;11.38;3.05;;;;;;;;;;5054154;28;20052;-71
2022/06/17 00:43:34;;;;;;;14.65;3.08;;;;;;;;;;5057248;28;20057;-69
2022/06/17 00:46:15;;;;;;;12.57;2.90;;;;;;;;;;5057660;28;20053;-71
2022/06/17 00:49:00;;;;;;;15.85;2.90;;;;;;;;;;5059241;28;20505;-71
2022/06/17 00:51:30;;;;;;;13.32;3.00;;;;;;;;;;5056368;28;20048;-72
2022/06/17 00:54:04;;;;;;;9.75;3.05;;;;;;;;;;5058874;28;20048;-70
2022/06/17 00:56:34;;;;;;;13.82;3.47;;;;;;;;;;5056424;28;20048;-70
2022/06/17 00:59:03;;;;;;;12.38;3.60;;;;;;;;;;5053206;28;20087;-70
2022/06/17 01:01:47;;;;;;;8.35;2.75;;;;;;;;;;5053564;28;20139;-70
2022/06/17 01:04:17;;;;;;;12.30;3.03;;;;;;;;;;5053522;28;20045;-71
2022/06/17 01:06:51;;;;;;;12.43;3.08;;;;;;;;;;5055141;28;20037;-71
2022/06/17 01:12:12;;;;;;;10.40;3.38;;;;;;;;;;5055334;28;20040;-72
2022/06/17 01:14:40;;;;;;;11.50;2.92;;;;;;;;;;5052866;28;20036;-72
2022/06/17 01:17:07;;;;;;;10.75;2.80;;;;;;;;;;5052166;28;20041;-71
2022/06/17 01:19:51;;;;;;;12.77;3.40;;;;;;;;;;5055081;28;20139;-70
2022/06/17 01:22:26;;;;;;;11.52;2.80;;;;;;;;;;5057363;28;20497;-70
2022/06/17 01:25:13;;;;;;;11.05;2.67;;;;;;;;;;5053438;28;20052;-70
2022/06/17 01:27:49;;;;;;;13.98;2.67;;;;;;;;;;5053659;28;20049;-69
2022/06/17 01:30:19;;;;;;;10.48;2.90;;;;;;;;;;5055071;28;20048;-71
2022/06/17 01:33:07;;;;;;;9.90;2.60;;;;;;;;;;5054362;28;20083;-71
2022/06/17 01:36:00;;;;;;;10.30;2.90;;;;;;;;;;5057578;28;20052;-71
2022/06/17 01:38:28;;;;;;;10.60;3.08;;;;;;;;;;5045915;28;22196;-70
2022/06/17 01:40:56;;;;;;;11.63;2.97;;;;;;;;;;5052899;28;20153;-70
2022/06/17 01:43:26;;;;;;;11.27;3.13;;;;;;;;;;5057111;28;20060;-71
2022/06/17 01:46:01;;;;;;;9.98;3.22;;;;;;;;;;5055833;28;20056;-70
2022/06/17 01:48:32;;;;;;;7.35;2.78;;;;;;;;;;5056753;28;20055;-71
2022/06/17 01:51:01;;;;;;;8.45;2.72;;;;;;;;;;5057015;28;20058;-71
2022/06/17 01:53:31;;;;;;;8.70;2.55;;;;;;;;;;5055004;28;20450;-69
2022/06/17 01:56:08;;;;;;;11.15;3.05;;;;;;;;;;5051041;28;20552;-71
2022/06/17 01:58:53;;;;;;;12.65;3.00;;;;;;;;;;5055188;28;20071;-69
2022/06/17 02:01:19;;;;;;;11.40;3.05;;;;;;;;;;5055134;28;20672;-72
2022/06/17 02:03:52;;;;;;;11.82;3.33;;;;;;;;;;5055481;28;20053;-71
2022/06/17 02:06:23;;;;;;;9.85;2.72;;;;;;;;;;5055317;28;20052;-72
2022/06/17 02:08:51;;;;;;;10.45;3.03;;;;;;;;;;5056694;28;20048;-70
2022/06/17 02:11:17;;;;;;;11.48;3.05;;;;;;;;;;5054838;28;20076;-69
2022/06/17 02:13:43;;;;;;;13.82;2.90;;;;;;;;;;5050833;28;20387;-70
2022/06/17 02:16:10;;;;;;;12.60;3.25;;;;;;;;;;5053255;28;20477;-71
2022/06/17 02:18:39;;;;;;;8.27;2.75;;;;;;;;;;5054275;28;20064;-71
2022/06/17 02:21:16;;;;;;;9.68;2.90;;;;;;;;;;5057417;28;20049;-71
2022/06/17 02:23:44;;;;;;;8.60;3.13;;;;;;;;;;5057074;28;20052;-71
2022/06/17 02:26:11;;;;;;;16.02;2.90;;;;;;;;;;5039636;28;20529;-70
2022/06/17 02:28:38;;;;;;;7.03;3.17;;;;;;;;;;5060746;28;20082;-69
2022/06/17 02:31:08;;;;;;;8.18;2.97;;;;;;;;;;5060190;28;20520;-70
2022/06/17 02:33:37;;;;;;;8.38;2.92;;;;;;;;;;5061193;28;20093;-71
2022/06/17 02:36:09;;;;;;;10.68;3.05;;;;;;;;;;5059094;28;20087;-70
2022/06/17 02:38:36;;;;;;;14.40;3.08;;;;;;;;;;5057320;28;20120;-70
2022/06/17 02:41:06;;;;;;;13.38;3.22;;;;;;;;;;5056721;28;20057;-71
2022/06/17 02:43:49;;;;;;;10.20;3.10;;;;;;;;;;5061345;28;20060;-71
2022/06/17 02:46:25;;;;;;;8.75;2.95;;;;;;;;;;5057557;28;20048;-73
2022/06/17 02:49:01;;;;;;;12.48;3.28;;;;;;;;;;5061326;28;20056;-72
2022/06/17 02:51:31;;;;;;;12.88;3.33;;;;;;;;;;5057713;28;20133;-72
2022/06/17 02:53:58;;;;;;;11.57;3.00;;;;;;;;;;5059178;28;20048;-69
2022/06/17 02:56:31;;;;;;;7.38;2.60;;;;;;;;;;5058266;28;20067;-69
2022/06/17 02:59:19;;;;;;;10.27;3.30;;;;;;;;;;5060688;28;20048;-70
2022/06/17 03:01:45;;;;;;;7.05;2.80;;;;;;;;;;5058219;28;20048;-70
2022/06/17 03:04:32;;;;;;;10.52;2.92;;;;;;;;;;5056930;28;20060;-70
2022/06/17 03:06:58;;;;;;;11.32;2.60;;;;;;;;;;5059686;28;20564;-71
2022/06/17 03:09:30;;;;;;;9.07;2.63;;;;;;;;;;5060726;28;20052;-69
2022/06/17 03:12:06;;;;;;;10.45;3.20;;;;;;;;;;5058245;28;20378;-71
2022/06/17 03:14:42;;;;;;;9.13;2.88;;;;;;;;;;5041818;28;20056;-70
2022/06/17 03:17:13;;;;;;;11.93;3.10;;;;;;;;;;5057195;28;20093;-70
2022/06/17 03:19:40;;;;;;;10.05;2.75;;;;;;;;;;5053444;28;20114;-71
2022/06/17 03:22:10;;;;;;;8.98;3.03;;;;;;;;;;5056596;28;20048;-70
2022/06/17 03:24:49;;;;;;;9.65;3.22;;;;;;;;;;5055634;28;20068;-71
2022/06/17 03:27:26;;;;;;;9.85;3.00;;;;;;;;;;5057607;28;20407;-71
2022/06/17 03:29:55;;;;;;;10.00;2.80;;;;;;;;;;5058939;28;20056;-71
2022/06/17 03:32:25;;;;;;;6.75;2.95;;;;;;;;;;5059881;28;20052;-71
2022/06/17 03:34:53;;;;;;;11.85;3.45;;;;;;;;;;5055358;28;20052;-70
2022/06/17 03:37:51;;;;;;;7.95;3.03;;;;;;;;;;5059022;28;20044;-71
2022/06/17 03:40:30;;;;;;;14.30;3.22;;;;;;;;;;5059942;28;20056;-70
2022/06/17 03:43:11;;;;;;;10.15;2.70;;;;;;;;;;5057099;28;20056;-72
2022/06/17 03:45:45;;;;;;;8.18;3.15;;;;;;;;;;5058349;28;20127;-70
2022/06/17 03:48:34;;;;;;;10.93;3.08;;;;;;;;;;5057922;28;20091;-71
2022/06/17 03:51:00;;;;;;;11.35;3.20;;;;;;;;;;5053357;28;20490;-70
2022/06/17 03:53:29;;;;;;;8.88;3.30;;;;;;;;;;5059579;28;20056;-72
2022/06/17 03:56:18;;;;;;;16.67;3.60;;;;;;;;;;5057343;28;21311;-70
2022/06/17 03:58:45;;;;;;;16.27;3.30;;;;;;;;;;5034012;28;20345;-71
2022/06/17 04:01:14;;;;;;;13.27;3.47;;;;;;;;;;5055255;28;20901;-71
2022/06/17 04:03:44;;;;;;;11.77;3.30;;;;;;;;;;5058724;28;20148;-71
2022/06/17 04:06:13;;;;;;;12.23;3.50;;;;;;;;;;5055582;28;20086;-69
2022/06/17 04:09:01;;;;;;;11.52;3.45;;;;;;;;;;5057816;28;20098;-71
2022/06/17 04:11:35;;;;;;;10.13;3.42;;;;;;;;;;5054063;28;20064;-74
2022/06/17 04:14:05;;;;;;;11.73;3.03;;;;;;;;;;5057307;28;20055;-69
2022/06/17 04:16:43;;;;;;;7.03;2.72;;;;;;;;;;5058129;28;20241;-76
2022/06/17 04:19:15;;;;;;;10.32;3.00;;;;;;;;;;5055746;28;20155;-70
2022/06/17 04:21:41;;;;;;;13.32;3.35;;;;;;;;;;5057363;28;20059;-73
2022/06/17 04:24:13;;;;;;;11.00;3.00;;;;;;;;;;5057691;28;20055;-75
2022/06/17 04:26:40;;;;;;;10.30;3.97;;;;;;;;;;5055773;28;20075;-73
2022/06/17 04:29:11;;;;;;;10.70;3.97;;;;;;;;;;5057511;28;20052;-73
2022/06/17 04:31:37;;;;;;;12.80;4.05;;;;;;;;;;5059165;28;20136;-71
2022/06/17 04:34:13;;;;;;;12.10;3.95;;;;;;;;;;5056845;28;20053;-77
2022/06/17 04:36:44;;;;;;;10.23;4.18;;;;;;;;;;5054536;28;20044;-74
2022/06/17 04:39:45;;;;;;;9.13;3.80;;;;;;;;;;5058909;28;20689;-73
2022/06/17 04:42:16;;;;;;;15.40;4.53;;;;;;;;;;5056969;28;20064;-74
2022/06/17 04:44:42;;;;;;;13.95;4.68;;;;;;;;;;5057140;28;20469;-74
2022/06/17 04:47:27;;;;;;;10.27;4.35;;;;;;;;;;5054504;28;20079;-70
2022/06/17 04:49:56;;;;;;;16.25;3.97;;;;;;;;;;5059000;28;20061;-73
2022/06/17 04:52:26;;;;;;;13.25;3.80;;;;;;;;;;5058252;28;20062;-72
2022/06/17 04:54:55;;;;;;;10.07;3.78;;;;;;;;;;5053604;28;20052;-74
2022/06/17 04:57:21;;;;;;;9.30;3.95;;;;;;;;;;5056167;28;20058;-72
2022/06/17 04:59:48;;;;;;;11.43;3.95;;;;;;;;;;5058630;28;20045;-70
2022/06/17 05:02:18;;;;;;;14.43;4.30;;;;;;;;;;5059000;28;20037;-72
2022/06/17 05:04:46;;;;;;;13.35;4.13;;;;;;;;;;5060002;28;20052;-73
2022/06/17 05:07:15;;;;;;;15.10;3.88;;;;;;;;;;5049898;28;20049;-73
2022/06/17 05:09:59;;;;;;;14.93;4.40;;;;;;;;;;5055377;28;20051;-71
2022/06/17 05:12:33;;;;;;;;;;;;;;;;;;5053824;28;20055;-69
2022/06/17 05:15:20;;;;;;;28.67;3.77;;;;;;;;;;5036580;28;20180;-72
2022/06/17 05:17:47;;;;;;;16.08;3.95;;;;;;;;;;5055745;28;20368;-73
2022/06/17 05:20:17;;;;;;;13.07;4.30;;;;;;;;;;5053854;28;20136;-72
2022/06/17 05:22:58;;;;;;;16.20;4.60;;;;;;;;;;5054830;28;20072;-69
2022/06/17 05:25:30;;;;;;;21.83;4.50;;;;;;;;;;5037266;28;20102;-74
2022/06/17 05:27:56;;;;;;;18.63;4.20;;;;;;;;;;5056823;28;20059;-74
2022/06/17 05:30:22;;;;;;;13.00;4.20;;;;;;;;;;5051716;28;20044;-74
2022/06/17 05:32:53;;;;;;;16.25;3.78;;;;;;;;;;5052619;28;20044;-74
2022/06/17 05:35:20;;;;;;;15.32;3.95;;;;;;;;;;5055111;28;20105;-73
2022/06/17 05:37:47;;;;;;;15.68;4.85;;;;;;;;;;5054278;28;20545;-72
2022/06/17 05:40:13;;;;;;;20.60;4.40;;;;;;;;;;5057823;28;20402;-74
2022/06/17 05:42:41;;;;;;;15.25;4.07;;;;;;;;;;5056989;28;20052;-75
2022/06/17 05:45:12;;;;;;;14.93;4.20;;;;;;;;;;5050291;28;20040;-72
2022/06/17 05:47:38;;;;;;;17.67;4.30;;;;;;;;;;5052654;28;20052;-73
2022/06/17 05:50:04;;;;;;;15.52;3.95;;;;;;;;;;5057096;28;20066;-71
2022/06/17 05:52:30;;;;;;;15.88;5.00;;;;;;;;;;5057314;28;20121;-75
2022/06/17 05:55:04;;;;;;;12.18;4.10;;;;;;;;;;5037456;28;20057;-74
2022/06/17 05:57:30;;;;;;;15.95;4.30;;;;;;;;;;5057157;28;20147;-73
2022/06/17 05:59:55;;;;;;;32.75;4.22;;;;;;;;;;5056029;28;21780;-75
2022/06/17 06:02:21;;;;;;;21.52;3.80;;;;;;;;;;5053446;28;20044;-74
2022/06/17 06:04:47;;;;;;;18.55;3.47;;;;;;;;;;5058999;28;20123;-71
2022/06/17 06:07:13;;;;;;;17.52;3.97;;;;;;;;;;5055201;28;20059;-73
2022/06/17 06:09:39;;;;;;;18.52;3.55;;;;;;;;;;5057331;28;20481;-74
2022/06/17 06:12:05;;;;;;;17.45;3.92;;;;;;;;;;5054716;28;20048;-72
2022/06/17 06:14:31;;;;;;;15.60;4.15;;;;;;;;;;5059217;28;20063;-72
2022/06/17 06:16:57;;;;;;;13.32;3.83;;;;;;;;;;5055923;28;20045;-74
2022/06/17 06:19:23;;;;;;;22.35;4.82;;;;;;;;;;5058963;28;20059;-77
2022/06/17 06:21:49;;;;;;;28.60;4.25;;;;;;;;;;5058483;28;20037;-73
2022/06/17 06:24:14;;;;;;;17.33;3.75;;;;;;;;;;5039406;28;20067;-73
2022/06/17 06:26:40;;;;;;;16.55;4.25;;;;;;;;;;5053995;28;20413;-75
2022/06/17 06:29:06;;;;;;;20.75;3.78;;;;;;;;;;5056279;28;20060;-77
2022/06/17 06:31:35;;;;;;;20.17;4.43;;;;;;;;;;5060625;28;20059;-74
2022/06/17 06:34:02;;;;;;;17.15;4.05;;;;;;;;;;5058676;28;21270;-78
2022/06/17 06:36:28;;;;;;;19.33;4.18;;;;;;;;;;5057049;28;20049;-76
2022/06/17 06:38:54;;;;;;;25.75;4.75;;;;;;;;;;5048935;28;20059;-71
2022/06/17 06:41:21;;;;;;;21.15;4.35;;;;;;;;;;5049070;28;20049;-76
2022/06/17 06:43:48;;;;;;;22.63;4.03;;;;;;;;;;5056694;28;20049;-74
2022/06/17 06:46:16;;;;;;;25.00;3.95;;;;;;;;;;5062841;28;20045;-76
2022/06/17 06:48:42;;;;;;;16.88;4.95;;;;;;;;;;5051918;28;20574;-71
2022/06/17 06:51:08;;;;;;;18.45;4.38;;;;;;;;;;5047257;28;20045;-66
2022/06/17 06:53:34;;;;;;;21.63;4.20;;;;;;;;;;5047580;28;20390;-73
2022/06/17 06:56:02;;;;;;;30.25;4.43;;;;;;;;;;5050002;28;20041;-72
2022/06/17 06:58:28;;;;;;;19.67;4.63;;;;;;;;;;5044415;28;20049;-71
2022/06/17 07:00:56;;;;;;;21.05;4.55;;;;;;;;;;5043891;28;20041;-70
2022/06/17 07:03:23;;;;;;;30.10;4.40;;;;;;;;;;5051287;28;20044;-72
2022/06/17 07:05:54;;;;;;;29.45;4.03;;;;;;;;;;5044299;28;20498;-71
2022/06/17 07:08:23;;;;;;;14.82;3.42;;;;;;;;;;5056220;28;20044;-68
2022/06/17 07:10:50;;;;;;;16.50;3.63;;;;;;;;;;5060466;28;20523;-71
2022/06/17 07:13:16;;;;;;;18.50;3.88;;;;;;;;;;5048813;28;20407;-73
2022/06/17 07:15:44;;;;;;;15.25;2.88;;;;;;;;;;5048335;28;20045;-71
2022/06/17 07:18:19;;;;;;;18.50;3.30;;;;;;;;;;5056504;28;20063;-71
2022/06/17 07:20:48;;;;;;;16.55;3.63;;;;;;;;;;5050157;28;20045;-71
2022/06/17 07:23:23;;;;;;;10.45;3.22;;;;;;;;;;5048185;28;20437;-71
2022/06/17 07:25:50;;;;;;;16.15;3.08;;;;;;;;;;5048151;28;20048;-76
2022/06/17 07:28:19;;;;;;;15.90;2.85;;;;;;;;;;5053664;28;20052;-72
2022/06/17 07:30:47;;;;;;;16.00;3.28;;;;;;;;;;5061128;28;20584;-71
2022/06/17 07:33:14;;;;;;;19.15;3.33;;;;;;;;;;5048447;28;20091;-75
2022/06/17 07:35:42;;;;;;;14.30;2.78;;;;;;;;;;5052175;28;20032;-71
2022/06/17 07:41:11;;;;;;;12.23;3.13;;;;;;;;;;4985578;28;20070;-72
2022/06/17 07:43:36;;;;;;;15.80;3.33;;;;;;;;;;4986578;28;20035;-69
2022/06/17 07:46:03;;;;;;;19.65;3.40;;;;;;;;;;4987677;28;20494;-73
2022/06/17 07:48:29;;;;;;;14.48;3.13;;;;;;;;;;4987313;28;21901;-73
2022/06/17 07:50:58;;;;;;;19.35;3.78;;;;;;;;;;4986571;28;20073;-73
2022/06/17 07:53:29;;;;;;;16.73;3.72;;;;;;;;;;4984891;28;20034;-73
2022/06/17 07:55:58;;;;;;;16.20;2.72;;;;;;;;;;4979095;28;20051;-77
2022/06/17 07:58:24;;;;;;;20.70;2.90;;;;;;;;;;4981031;28;20054;-73
2022/06/17 08:00:50;;;;;;;22.40;3.20;;;;;;;;;;4986146;28;20101;-71
2022/06/17 08:03:18;;;;;;;21.08;3.83;;;;;;;;;;4987702;28;20082;-75
2022/06/17 08:05:50;;;;;;;16.73;3.35;;;;;;;;;;4986129;28;20128;-71
2022/06/17 08:08:23;;;;;;;22.35;3.22;;;;;;;;;;4985427;28;20047;-73
2022/06/17 08:10:52;;;;;;;31.13;3.58;;;;;;;;;;4980513;28;20050;-71
2022/06/17 08:13:18;;;;;;;28.63;3.83;;;;;;;;;;4985111;28;20681;-74
2022/06/17 08:15:44;;;;;;;30.42;3.92;;;;;;;;;;4986243;28;20042;-73
2022/06/17 08:18:11;;;;;;;40.53;5.65;;;;;;;;;;5017557;28;20045;-73
2022/06/17 08:20:38;;;;;;;33.22;5.78;;;;;;;;;;5047726;28;20041;-73
2022/06/17 08:23:05;;;;;;;40.00;6.20;;;;;;;;;;5051470;28;20056;-71
2022/06/17 08:25:33;;;;;;;25.23;5.55;;;;;;;;;;5048242;28;20049;-73
2022/06/17 08:28:03;;;;;;;22.52;5.63;;;;;;;;;;5051447;28;20060;-72
2022/06/17 08:30:33;;;;;;;20.55;4.70;;;;;;;;;;5050481;28;20174;-73
2022/06/17 08:32:59;;;;;;;25.38;4.95;;;;;;;;;;5051672;28;20053;-71
2022/06/17 08:35:25;;;;;;;21.20;4.78;;;;;;;;;;5056833;28;20052;-70
2022/06/17 08:37:57;;;;;;;20.63;4.68;;;;;;;;;;5052238;28;20132;-73
2022/06/17 08:40:39;;;;;;;24.40;3.97;;;;;;;;;;5064366;28;20056;-73
2022/06/17 08:43:36;;;;;;;28.48;4.10;;;;;;;;;;5050398;28;20134;-75
2022/06/17 08:46:31;;;;;;;15.95;3.38;;;;;;;;;;5052561;28;20204;-75
2022/06/17 08:49:27;;;;;;;15.90;3.40;;;;;;;;;;5043120;28;20063;-71
2022/06/17 08:52:18;;;;;;;14.43;3.28;;;;;;;;;;5054577;28;20142;-72
2022/06/17 08:55:21;;;;;;;15.02;3.53;;;;;;;;;;5054304;28;20135;-71
2022/06/17 08:57:49;;;;;;;12.77;3.03;;;;;;;;;;5031753;28;20106;-74
2022/06/17 09:00:41;;;;;;;14.82;2.80;;;;;;;;;;5053063;28;20044;-70
2022/06/17 09:03:15;;;;;;;13.32;3.10;;;;;;;;;;5015432;28;20049;-71
2022/06/17 09:05:41;;;;;;;14.23;2.90;;;;;;;;;;5011251;28;20505;-71
2022/06/17 09:08:14;;;;;;;16.80;3.45;;;;;;;;;;5007817;28;20056;-72
2022/06/17 09:10:50;;;;;;;13.47;2.83;;;;;;;;;;5023982;28;20061;-74
2022/06/17 09:13:52;;;;;;;11.52;3.13;;;;;;;;;;5023974;28;20112;-72
2022/06/17 09:16:44;;;;;;;14.65;3.20;;;;;;;;;;5009273;28;20108;-71
2022/06/17 09:19:15;;;;;;;12.23;2.60;;;;;;;;;;5019177;28;20426;-72
2022/06/17 09:21:54;;;;;;;18.42;3.03;;;;;;;;;;5023418;28;20495;-72
2022/06/17 09:24:37;;;;;;;13.70;2.72;;;;;;;;;;5021741;28;20601;-72
2022/06/17 09:27:10;;;;;;;;;;;;;;;;;;5020934;28;20114;-72
2022/06/17 09:29:49;;;;;;;15.82;2.80;;;;;;;;;;5016208;28;20321;-71
2022/06/17 09:32:22;;;;;;;14.07;3.50;;;;;;;;;;5016915;28;20045;-71
2022/06/17 09:35:12;;;;;;;11.97;2.17;;;;;;;;;;5021624;28;20045;-71
2022/06/17 09:37:51;;;;;;;11.18;2.45;;;;;;;;;;5033133;28;20061;-70
2022/06/17 09:40:28;;;;;;;12.13;2.90;;;;;;;;;;5045655;28;20142;-72
2022/06/17 09:43:16;;;;;;;13.05;2.85;;;;;;;;;;5059706;28;20040;-69
2022/06/17 09:45:57;;;;;;;15.05;2.83;;;;;;;;;;5060986;28;20049;-69
2022/06/17 09:48:31;;;;;;;18.92;2.58;;;;;;;;;;5052110;28;20048;-70
2022/06/17 09:51:10;;;;;;;7.88;2.20;;;;;;;;;;5054966;28;20045;-71
2022/06/17 09:53:53;;;;;;;14.07;2.58;;;;;;;;;;5050735;28;20040;-72
2022/06/17 09:56:41;;;;;;;13.05;2.20;;;;;;;;;;5056440;28;20196;-74
2022/06/17 09:59:12;;;;;;;13.85;2.70;;;;;;;;;;5055307;28;20190;-70
2022/06/17 10:01:41;;;;;;;21.40;3.40;;;;;;;;;;5060932;28;20052;-70
2022/06/17 10:04:13;;;;;;;23.33;3.60;;;;;;;;;;5048668;28;20204;-69
2022/06/17 10:07:05;;;;;;;21.25;3.90;;;;;;;;;;5054825;28;20110;-71
2022/06/17 10:10:03;;;;;;;18.52;4.63;;;;;;;;;;5052105;28;20446;-68
2022/06/17 10:12:50;;;;;;;24.70;4.43;;;;;;;;;;5011076;28;20053;-69
2022/06/17 10:15:39;;;;;;;18.80;3.25;;;;;;;;;;5014329;28;20200;-68
2022/06/17 10:18:31;;;;;;;18.20;3.90;;;;;;;;;;5022216;28;20137;-69
2022/06/17 10:21:23;;;;;;;18.65;3.40;;;;;;;;;;5014722;28;20065;-70
2022/06/17 10:24:13;;;;;;;17.42;3.50;;;;;;;;;;5013189;28;20064;-69
2022/06/17 10:26:52;;;;;;;18.33;3.50;;;;;;;;;;5015767;28;20066;-71
2022/06/17 10:29:27;;;;;;;16.67;3.20;;;;;;;;;;5012307;28;20412;-69
2022/06/17 10:31:52;;;;;;;12.15;2.85;;;;;;;;;;5017532;28;20087;-71
2022/06/17 10:34:28;;;;;;;22.63;6.30;;;;;;;;;;5010235;28;20038;-70
2022/06/17 10:37:00;;;;;;;16.75;3.35;;;;;;;;;;5012896;28;20042;-72
2022/06/17 10:39:29;;;;;;;11.65;3.25;;;;;;;;;;5013324;28;20503;-70
2022/06/17 10:41:57;;;;;;;20.65;3.10;;;;;;;;;;5019680;28;20046;-73
2022/06/17 10:44:26;;;;;;;12.38;3.10;;;;;;;;;;4994158;28;20115;-73
2022/06/17 10:46:58;;;;;;;14.45;2.60;;;;;;;;;;5015138;28;20101;-72
2022/06/17 10:49:54;;;;;;;10.95;3.08;;;;;;;;;;5043363;28;20064;-74
2022/06/17 10:52:45;;;;;;;12.27;3.17;;;;;;;;;;5048594;28;20548;-75
2022/06/17 10:55:27;;;;;;;10.60;2.75;;;;;;;;;;5047861;28;20143;-71
2022/06/17 10:58:13;;;;;;;14.52;2.88;;;;;;;;;;5048996;28;20120;-74
2022/06/17 11:01:02;;;;;;;10.55;2.53;;;;;;;;;;5054992;28;20052;-72
2022/06/17 11:03:31;;;;;;;19.73;2.50;;;;;;;;;;5051646;28;20068;-73
2022/06/17 11:06:03;;;;;;;13.18;2.70;;;;;;;;;;5049861;28;20052;-71
2022/06/17 11:08:52;;;;;;;14.98;2.42;;;;;;;;;;5060826;28;20413;-71
2022/06/17 11:14:41;;;;;;;18.33;2.58;;;;;;;;;;5048859;28;20514;-70
2022/06/17 11:17:35;;;;;;;13.05;2.70;;;;;;;;;;5048565;28;20053;-74
2022/06/17 11:20:21;;;;;;;9.55;2.00;;;;;;;;;;5048774;28;20051;-71
2022/06/17 11:23:02;;;;;;;11.57;2.25;;;;;;;;;;5056774;28;20048;-73
2022/06/17 11:25:30;;;;;;;5.07;2.00;;;;;;;;;;5048224;28;20102;-72
2022/06/17 11:27:59;;;;;;;8.85;2.40;;;;;;;;;;5051286;28;20139;-71
2022/06/17 11:30:34;;;;;;;8.85;2.20;;;;;;;;;;5054290;28;20072;-72
2022/06/17 11:33:01;;;;;;;7.28;2.15;;;;;;;;;;5051118;28;20048;-71
2022/06/17 11:35:29;;;;;;;7.45;2.33;;;;;;;;;;5055524;28;20045;-71
2022/06/17 11:37:57;;;;;;;11.93;2.40;;;;;;;;;;5047960;28;20049;-73
2022/06/17 11:40:35;;;;;;;7.70;2.40;;;;;;;;;;5048483;28;20095;-72
2022/06/17 11:43:06;;;;;;;11.43;2.80;;;;;;;;;;5060744;28;20191;-72
2022/06/17 11:45:40;;;;;;;18.23;2.50;;;;;;;;;;5058826;28;20113;-71
2022/06/17 11:48:14;;;;;;;14.60;3.22;;;;;;;;;;5064023;28;20092;-71
2022/06/17 11:50:58;;;;;;;7.97;2.60;;;;;;;;;;5057310;28;20489;-72
2022/06/17 11:53:24;;;;;;;16.33;2.90;;;;;;;;;;5055898;28;20045;-69
2022/06/17 11:55:51;;;;;;;12.02;2.33;;;;;;;;;;5062704;28;20063;-71
2022/06/17 11:58:19;;;;;;;17.25;2.58;;;;;;;;;;5056832;28;20041;-71
2022/06/17 12:00:49;;;;;;;14.35;2.72;;;;;;;;;;5058428;28;20367;-70
2022/06/17 12:03:21;;;;;;;5.88;2.28;;;;;;;;;;5059374;28;20037;-68
2022/06/17 12:05:59;;;;;;;7.82;2.20;;;;;;;;;;5059714;28;20052;-69
2022/06/17 12:08:33;;;;;;;11.60;2.40;;;;;;;;;;5059725;28;20041;-70
2022/06/17 12:11:02;;;;;;;;;;;;;;;;;;5055148;28;20066;-70
2022/06/17 12:13:36;;;;;;;;;;;;;;;;;;5064164;28;19926;-69
2022/06/17 12:16:11;;;;;;;;;;;;;;;;;;5056232;28;19982;-73
2022/06/17 12:18:38;;;;;;;;;;;;;;;;;;5066479;28;20002;-71
2022/06/17 12:21:25;;;;;;;;;;;;;;;;;;5070622;28;20044;-69
2022/06/17 12:24:12;;;;;;;;;;;;;;;;;;5065760;28;20428;-71
2022/06/17 12:26:41;;;;;;;;;;;;;;;;;;5066726;28;19920;-69
2022/06/17 12:29:15;;;;;;;;;;;;;;;;;;5055563;28;19934;-72
2022/06/17 12:31:41;;;;;;;;;;;;;;;;;;5058173;28;19924;-70
2022/06/17 12:34:15;;;;;;;;;;;;;;;;;;5060339;28;19920;-73
2022/06/17 12:36:51;;;;;;;;;;;;;;;;;;5063401;28;20045;-73
2022/06/17 12:39:20;;;;;;;;;;;;;;;;;;5064187;28;19924;-73
2022/06/17 12:41:55;;;;;;;;;;;;;;;;;;5053228;28;19942;-75
2022/06/17 12:44:20;;;;;;;;;;;;;;;;;;5060226;28;20015;-72
2022/06/17 12:46:46;;;;;;;;;;;;;;;;;;5059305;28;20314;-72
2022/06/17 12:55:02;;;;;;;;;;;;;;;;;;5060891;28;19931;-74
2022/06/17 12:57:34;;;;;;;;;;;;;;;;;;5050851;28;19920;-75
2022/06/17 13:00:07;;;;;;;;;;;;;;;;;;5053816;28;19990;-68
2022/06/17 13:02:51;;;;;;;;;;;;;;;;;;5064482;28;20278;-70
2022/06/17 13:05:23;;;;;;;;;;;;;;;;;;5055722;28;20421;-70
2022/06/17 13:07:58;;;;;;;;;;;;;;;;;;5060363;28;19925;-71
2022/06/17 13:10:39;;;;;;;;;;;;;;;;;;5059523;28;19920;-73
2022/06/17 13:13:14;;;;;;;;;;;;;;;;;;5065793;28;20278;-73
2022/06/17 13:15:46;;;;;;;;;;;;;;;;;;5040766;28;19920;-70
2022/06/17 13:18:19;;;;;;;;;;;;;;;;;;5050389;28;20375;-70
2022/06/17 13:21:11;;;;;;;;;;;;;;;;;;5060233;28;19974;-70
2022/06/17 13:23:40;;;;;;;;;;;;;;;;;;5022088;28;19920;-70
2022/06/17 13:26:08;;;;;;;;;;;;;;;;;;5058404;28;19932;-68
2022/06/17 13:28:37;;;;;;;;;;;;;;;;;;5044545;28;20397;-72
2022/06/17 13:31:14;;;;;;;;;;;;;;;;;;5067382;28;19924;-72
2022/06/17 13:34:01;;;;;;;;;;;;;;;;;;5059517;28;19936;-71
2022/06/17 13:36:33;;;;;;;;;;;;;;;;;;5055742;28;20397;-71
2022/06/17 13:39:25;;;;;;;;;;;;;;;;;;5054656;28;19924;-70
2022/06/17 13:41:59;;;;;;;;;;;;;;;;;;5064644;28;19924;-70
2022/06/17 13:44:25;;;;;;;;;;;;;;;;;;5062406;28;20025;-71
2022/06/17 13:46:56;;;;;;;;;;;;;;;;;;5064735;28;20269;-69
2022/06/17 13:49:41;;;;;;;;;;;;;;;;;;5058334;28;19986;-70
2022/06/17 13:52:28;;;;;;;;;;;;;;;;;;5063144;28;19921;-72
2022/06/17 13:54:53;;;;;;;;;;;;;;;;;;5057582;28;19975;-69
2022/06/17 13:57:28;;;;;;;;;;;;;;;;;;5051090;28;19929;-71
2022/06/17 13:59:56;;;;;;;;;;;;;;;;;;5061021;28;19924;-72
2022/06/17 14:02:48;;;;;;;;;;;;;;;;;;5060589;28;19969;-69
2022/06/17 14:05:23;;;;;;;;;;;;;;;;;;5049835;28;19921;-71
2022/06/17 14:07:49;;;;;;;;;;;;;;;;;;5048894;28;19921;-68
2022/06/17 14:10:27;;;;;;;;;;;;;;;;;;5058911;28;19934;-69
2022/06/17 14:12:53;;;;;;;;;;;;;;;;;;5051190;28;20316;-73
2022/06/17 14:15:23;;;;;;;;;;;;;;;;;;5066998;28;19920;-75
2022/06/17 14:17:54;;;;;;;;;;;;;;;;;;5063788;28;20010;-70
2022/06/17 14:20:35;;;;;;;;;;;;;;;;;;5061364;28;20219;-71
2022/06/17 14:23:04;;;;;;;;;;;;;;;;;;5051444;28;19930;-70
2022/06/17 14:25:57;;;;;;;;;;;;;;;;;;5052095;28;20055;-66
2022/06/17 14:28:28;;;;;;;;;;;;;;;;;;5047686;28;19974;-71
2022/06/17 14:31:07;;;;;;;;;;;;;;;;;;5060995;28;19970;-67
2022/06/17 14:33:38;;;;;;;;;;;;;;;;;;5049881;28;19956;-68
2022/06/17 14:36:07;;;;;;;;;;;;;;;;;;5049354;28;20117;-68
2022/06/17 14:38:35;;;;;;;;;;;;;;;;;;5049181;28;19931;-70
2022/06/17 14:43:47;;;;;;;;;;;;;;;;;;5060878;28;19920;-69
2022/06/17 14:46:13;;;;;;;;;;;;;;;;;;5049124;28;19972;-71
2022/06/17 14:48:45;;;;;;;;;;;;;;;;;;5052317;28;19928;-68
2022/06/17 14:51:32;;;;;;;;;;;;;;;;;;5049355;28;19924;-66
2022/06/17 14:54:00;;;;;;;;;;;;;;;;;;5062083;28;20281;-73
2022/06/17 14:56:29;;;;;;;;;;;;;;;;;;5049401;28;20244;-65
2022/06/17 14:58:59;;;;;;;;;;;;;;;;;;5058432;28;19920;-67
2022/06/17 15:01:27;;;;;;;;;;;;;;;;;;5052998;28;19921;-65
2022/06/17 15:03:58;;;;;;;;;;;;;;;;;;5048840;28;20397;-70
2022/06/17 15:06:26;;;;;;;;;;;;;;;;;;5048977;28;19921;-72
2022/06/17 15:08:52;;;;;;;;;;;;;;;;;;5048266;28;20369;-67
2022/06/17 15:11:21;;;;;;;;;;;;;;;;;;5047876;28;20235;-71
2022/06/17 15:14:08;;;;;;;;;;;;;;;;;;5052276;28;20208;-67
2022/06/17 15:16:37;;;;;;;;;;;;;;;;;;5057810;28;20427;-70
2022/06/17 15:19:14;;;;;;;;;;;;;;;;;;5048900;28;19928;-68
2022/06/17 15:22:06;;;;;;;;;;;;;;;;;;5047797;28;19975;-70
2022/06/17 15:24:56;;;;;;;;;;;;;;;;;;5033948;28;20016;-65
2022/06/17 15:27:41;;;;;;;;;;;;;;;;;;5054869;28;19966;-66
2022/06/17 15:30:17;;;;;;;;;;;;;;;;;;5058213;28;20006;-70
2022/06/17 15:32:44;;;;;;;;;;;;;;;;;;5057029;28;20262;-70
2022/06/17 15:35:16;;;;;;;;;;;;;;;;;;5058841;28;19973;-67
2022/06/17 15:37:48;;;;;;;;;;;;;;;;;;5058237;28;19965;-73
2022/06/17 15:40:21;;;;;;;;;;;;;;;;;;5065822;28;19920;-69
2022/06/17 15:43:23;;;;;;;;;;;;;;;;;;5058365;28;20332;-75
2022/06/17 15:45:48;;;;;;;;;;;;;;;;;;4987005;28;19921;-74
2022/06/17 15:48:24;;;;;;;;;;;;;;;;;;4982487;28;20012;-69
2022/06/17 15:50:58;;;;;;;;;;;;;;;;;;4986186;28;20371;-74
2022/06/17 15:53:34;;;;;;;;;;;;;;;;;;4982665;28;20392;-71
2022/06/17 15:56:01;;;;;;;;;;;;;;;;;;4986341;28;19921;-72